Time;durP1;ratioP1;P1;durP2;ratioP2;P2;SDS_P1;SDS_P2;PMS_P1;PMS_P2;Temp;Humidity;BMP_temperature;BMP_pressure;BME280_temperature;BME280_humidity;BME280_pressure;Samples;Min_cycle;Max_cycle;Signal;HPM_P1;HPM_P2
2023/05/20 00:00:55;;;;;;;101.57;63.65;;;13.80;99.90;;;;;;5071507;28;20051;-81
2023/05/20 00:03:21;;;;;;;96.03;61.38;;;13.70;99.90;;;;;;5072697;28;20414;-81
2023/05/20 00:05:47;;;;;;;92.35;61.85;;;13.70;99.90;;;;;;5072451;28;20096;-81
2023/05/20 00:08:13;;;;;;;100.35;59.75;;;13.70;99.90;;;;;;5069384;28;20431;-81
2023/05/20 00:10:40;;;;;;;89.88;59.38;;;13.70;99.90;;;;;;5071554;28;20107;-81
2023/05/20 00:13:06;;;;;;;96.18;61.85;;;13.70;99.90;;;;;;5072053;28;20383;-81
2023/05/20 00:15:33;;;;;;;94.28;60.92;;;13.60;99.90;;;;;;5071602;28;20035;-81
2023/05/20 00:18:02;;;;;;;92.38;59.90;;;13.60;99.90;;;;;;5073362;28;20017;-82
2023/05/20 00:20:28;;;;;;;90.82;58.85;;;13.60;99.90;;;;;;5071701;28;20423;-81
2023/05/20 00:22:54;;;;;;;87.25;56.70;;;13.60;99.90;;;;;;5072025;28;20063;-81
2023/05/20 00:25:20;;;;;;;91.80;58.85;;;13.60;99.90;;;;;;5072016;28;20036;-81
2023/05/20 00:27:46;;;;;;;93.72;58.13;;;13.50;99.90;;;;;;5071832;28;20112;-81
2023/05/20 00:30:12;;;;;;;88.97;57.42;;;13.50;99.90;;;;;;5073092;28;20111;-81
2023/05/20 00:32:38;;;;;;;85.03;55.95;;;13.50;99.90;;;;;;5072744;28;20042;-81
2023/05/20 00:35:04;;;;;;;89.00;57.63;;;13.40;99.90;;;;;;5070334;28;20044;-81
2023/05/20 00:37:30;;;;;;;83.85;53.92;;;13.50;99.90;;;;;;5071297;28;20370;-82
2023/05/20 00:39:56;;;;;;;92.63;57.88;;;13.40;99.90;;;;;;5071320;28;20024;-82
2023/05/20 00:42:23;;;;;;;89.30;57.35;;;13.40;99.90;;;;;;5071707;28;20020;-81
2023/05/20 00:44:50;;;;;;;88.47;58.15;;;13.40;99.90;;;;;;5076700;28;20028;-82
2023/05/20 00:47:17;;;;;;;86.43;57.38;;;13.40;99.90;;;;;;5076413;28;20107;-82
2023/05/20 00:49:48;;;;;;;94.80;58.92;;;13.30;99.90;;;;;;5076537;28;20029;-82
2023/05/20 00:52:16;;;;;;;91.07;57.40;;;13.30;99.90;;;;;;5076452;28;20025;-80
2023/05/20 00:54:42;;;;;;;94.80;60.13;;;13.40;99.90;;;;;;5075143;28;20036;-82
2023/05/20 00:57:08;;;;;;;92.68;57.30;;;13.30;99.90;;;;;;5074785;28;20032;-81
2023/05/20 00:59:38;;;;;;;97.03;58.45;;;13.30;99.90;;;;;;5075116;28;20107;-81
2023/05/20 01:02:04;;;;;;;86.97;56.83;;;13.30;99.90;;;;;;5074172;28;20105;-81
2023/05/20 01:04:31;;;;;;;91.32;56.95;;;13.30;99.90;;;;;;5075637;28;20071;-82
2023/05/20 01:06:59;;;;;;;82.95;52.83;;;13.30;99.90;;;;;;5075794;28;20029;-81
2023/05/20 01:09:25;;;;;;;82.18;50.22;;;13.40;99.90;;;;;;5075483;28;20467;-81
2023/05/20 01:11:58;;;;;;;84.75;49.15;;;13.30;99.90;;;;;;5075327;28;20401;-82
2023/05/20 01:14:28;;;;;;;78.97;46.20;;;13.40;99.90;;;;;;5074123;28;20035;-81
2023/05/20 01:16:57;;;;;;;82.43;47.20;;;13.40;99.90;;;;;;5073920;28;20020;-82
2023/05/20 01:19:34;;;;;;;79.78;49.30;;;13.30;99.90;;;;;;5074088;28;20024;-82
2023/05/20 01:22:04;;;;;;;82.93;46.33;;;13.30;99.90;;;;;;5074352;28;20032;-82
2023/05/20 01:24:30;;;;;;;87.15;46.90;;;13.40;99.90;;;;;;5074219;28;20359;-81
2023/05/20 01:26:57;;;;;;;87.78;47.22;;;13.30;99.90;;;;;;5075339;28;20440;-81
2023/05/20 01:29:24;;;;;;;79.85;46.90;;;13.30;99.90;;;;;;5074115;28;20039;-81
2023/05/20 01:31:52;;;;;;;89.15;46.97;;;13.30;99.90;;;;;;5075180;28;20021;-81
2023/05/20 01:34:18;;;;;;;79.32;46.22;;;13.30;99.90;;;;;;5074803;28;20048;-81
2023/05/20 01:36:45;;;;;;;74.63;44.38;;;13.30;99.90;;;;;;5074916;28;20032;-82
2023/05/20 01:39:13;;;;;;;78.72;46.50;;;13.30;99.90;;;;;;5074882;28;20027;-82
2023/05/20 01:41:40;;;;;;;82.35;45.55;;;13.30;99.90;;;;;;5067975;28;20024;-81
2023/05/20 01:44:06;;;;;;;82.55;44.72;;;13.30;99.90;;;;;;5074215;28;20647;-81
2023/05/20 01:46:33;;;;;;;77.00;44.28;;;13.30;99.90;;;;;;5074001;28;20036;-81
2023/05/20 01:48:59;;;;;;;85.22;46.85;;;13.20;99.90;;;;;;5075071;28;20035;-81
2023/05/20 01:51:25;;;;;;;81.82;46.42;;;13.10;99.90;;;;;;5073262;28;20023;-82
2023/05/20 01:53:51;;;;;;;84.45;50.30;;;13.10;99.90;;;;;;5073659;28;20020;-82
2023/05/20 01:56:16;;;;;;;79.88;47.10;;;13.10;99.90;;;;;;5074393;28;20029;-81
2023/05/20 01:58:42;;;;;;;79.43;48.22;;;13.10;99.90;;;;;;5074188;28;20036;-81
2023/05/20 02:01:08;;;;;;;79.32;46.20;;;13.10;99.90;;;;;;5073477;28;20020;-82
2023/05/20 02:03:34;;;;;;;82.53;47.72;;;13.00;99.90;;;;;;5074755;28;20066;-81
2023/05/20 02:06:00;;;;;;;81.53;49.17;;;13.00;99.90;;;;;;5074588;28;20078;-81
2023/05/20 02:08:25;;;;;;;79.38;47.45;;;12.90;99.90;;;;;;5074344;28;20082;-81
2023/05/20 02:10:51;;;;;;;73.13;47.72;;;12.90;99.90;;;;;;5074795;28;20510;-81
2023/05/20 02:13:17;;;;;;;85.95;51.33;;;12.80;99.90;;;;;;5074484;28;20355;-81
2023/05/20 02:15:43;;;;;;;81.40;50.70;;;12.80;99.90;;;;;;5074323;28;20101;-81
2023/05/20 02:18:11;;;;;;;83.40;51.80;;;12.70;99.90;;;;;;5072961;28;20398;-81
2023/05/20 02:20:37;;;;;;;86.13;51.85;;;12.60;99.90;;;;;;5074185;28;20103;-81
2023/05/20 02:23:07;;;;;;;83.43;48.38;;;12.60;99.90;;;;;;5073653;28;20096;-82
2023/05/20 02:25:33;;;;;;;78.45;47.40;;;12.60;99.90;;;;;;5072860;28;20111;-81
2023/05/20 02:27:59;;;;;;;73.97;46.83;;;12.60;99.90;;;;;;5072819;28;20020;-81
2023/05/20 02:30:26;;;;;;;76.25;47.20;;;12.50;99.90;;;;;;5072707;28;20029;-82
2023/05/20 02:32:51;;;;;;;72.07;45.35;;;12.50;99.90;;;;;;5087694;28;20471;-82
2023/05/20 02:35:17;;;;;;;73.35;46.13;;;12.40;99.90;;;;;;5073107;28;20076;-81
2023/05/20 02:37:44;;;;;;;77.85;46.22;;;12.40;99.90;;;;;;5074178;28;20457;-81
2023/05/20 02:40:10;;;;;;;84.20;46.45;;;12.30;99.90;;;;;;5073807;28;20102;-81
2023/05/20 02:42:36;;;;;;;89.28;44.33;;;12.10;99.90;;;;;;5074477;28;20012;-81
2023/05/20 02:45:02;;;;;;;85.68;45.17;;;12.00;99.90;;;;;;5074139;28;20402;-80
2023/05/20 02:47:28;;;;;;;95.28;41.60;;;12.00;99.90;;;;;;5072748;28;20073;-81
2023/05/20 02:49:53;;;;;;;78.55;41.85;;;12.00;99.90;;;;;;5074333;28;20035;-81
2023/05/20 02:52:20;;;;;;;89.88;41.30;;;12.00;99.90;;;;;;5074208;28;20064;-81
2023/05/20 02:54:46;;;;;;;76.57;40.65;;;12.00;99.90;;;;;;5073506;28;20033;-81
2023/05/20 02:57:12;;;;;;;77.72;43.88;;;12.00;99.90;;;;;;5071765;28;20051;-82
2023/05/20 02:59:38;;;;;;;84.60;43.72;;;11.90;99.90;;;;;;5073509;28;20013;-81
2023/05/20 03:02:04;;;;;;;80.95;44.00;;;11.90;99.90;;;;;;5073678;28;20386;-81
2023/05/20 03:04:30;;;;;;;80.95;45.03;;;11.90;99.90;;;;;;5073935;28;20024;-81
2023/05/20 03:06:56;;;;;;;91.80;42.20;;;12.00;99.90;;;;;;5072778;28;20020;-80
2023/05/20 03:09:23;;;;;;;80.38;40.10;;;11.90;99.90;;;;;;5072974;28;20031;-81
2023/05/20 03:11:49;;;;;;;70.43;40.60;;;11.80;99.90;;;;;;5072133;28;20488;-81
2023/05/20 03:14:16;;;;;;;69.90;42.63;;;11.90;99.90;;;;;;5073148;28;20112;-80
2023/05/20 03:16:41;;;;;;;66.25;40.72;;;12.00;99.90;;;;;;5072994;28;20032;-81
2023/05/20 03:19:07;;;;;;;69.28;41.00;;;12.10;99.90;;;;;;5073361;28;20549;-81
2023/05/20 03:21:33;;;;;;;70.25;40.42;;;12.10;99.90;;;;;;5073405;28;20549;-81
2023/05/20 03:23:59;;;;;;;65.55;40.63;;;12.10;99.90;;;;;;5071373;28;20024;-81
2023/05/20 03:26:25;;;;;;;67.85;40.80;;;12.10;99.90;;;;;;5073455;28;20020;-82
2023/05/20 03:28:50;;;;;;;73.90;41.28;;;12.20;99.90;;;;;;5071274;28;20027;-82
2023/05/20 03:31:16;;;;;;;79.10;40.13;;;12.20;99.90;;;;;;5073297;28;20029;-79
2023/05/20 03:33:44;;;;;;;74.88;39.40;;;12.20;99.90;;;;;;5072889;28;20455;-80
2023/05/20 03:36:10;;;;;;;86.00;40.05;;;12.30;99.90;;;;;;5066113;28;20447;-79
2023/05/20 03:38:35;;;;;;;85.10;40.67;;;12.30;99.90;;;;;;5073226;28;20032;-79
2023/05/20 03:41:01;;;;;;;78.65;41.13;;;12.40;99.90;;;;;;5072832;28;20016;-80
2023/05/20 03:43:27;;;;;;;70.47;37.17;;;12.30;99.90;;;;;;5072509;28;20028;-80
2023/05/20 03:45:53;;;;;;;91.93;37.92;;;12.40;99.90;;;;;;5071975;28;20051;-80
2023/05/20 03:48:19;;;;;;;94.60;38.15;;;12.40;99.90;;;;;;5073368;28;20052;-81
2023/05/20 03:50:45;;;;;;;82.05;36.72;;;12.40;99.90;;;;;;5072451;28;20336;-81
2023/05/20 03:53:10;;;;;;;81.63;36.45;;;12.30;99.90;;;;;;5073250;28;20107;-82
2023/05/20 03:55:37;;;;;;;82.05;35.78;;;12.30;99.90;;;;;;5072684;28;20028;-81
2023/05/20 03:58:03;;;;;;;81.55;34.95;;;12.30;99.90;;;;;;5071284;28;20016;-82
2023/05/20 04:00:30;;;;;;;94.07;35.08;;;12.30;99.90;;;;;;5072389;28;20043;-81
2023/05/20 04:02:57;;;;;;;83.90;36.03;;;12.30;99.90;;;;;;5072569;28;20013;-82
2023/05/20 04:05:23;;;;;;;110.07;39.85;;;12.30;99.90;;;;;;5071306;28;20454;-82
2023/05/20 04:07:49;;;;;;;91.95;39.05;;;12.40;99.90;;;;;;5071678;28;20025;-82
2023/05/20 04:10:15;;;;;;;114.28;41.75;;;12.50;99.90;;;;;;5070816;28;20025;-82
2023/05/20 04:12:41;;;;;;;105.10;40.65;;;12.50;99.90;;;;;;5072930;28;20024;-82
2023/05/20 04:15:07;;;;;;;100.15;43.83;;;12.60;99.90;;;;;;5073151;28;20025;-82
2023/05/20 04:17:36;;;;;;;104.07;42.05;;;12.60;99.90;;;;;;5073345;28;20020;-82
2023/05/20 04:20:04;;;;;;;106.43;43.78;;;12.70;99.90;;;;;;5077130;28;20021;-81
2023/05/20 04:22:30;;;;;;;119.40;43.45;;;12.70;99.90;;;;;;5075912;28;20086;-81
2023/05/20 04:24:56;;;;;;;115.85;46.03;;;12.70;99.90;;;;;;5077047;28;20025;-81
2023/05/20 04:27:22;;;;;;;134.60;47.60;;;12.70;99.90;;;;;;5075688;28;20336;-82
2023/05/20 04:29:48;;;;;;;132.13;48.20;;;12.80;99.90;;;;;;5076689;28;20021;-81
2023/05/20 04:32:17;;;;;;;149.90;44.67;;;12.90;99.90;;;;;;5076533;28;20036;-81
2023/05/20 04:34:44;;;;;;;119.05;43.58;;;12.80;99.90;;;;;;5075383;28;20067;-82
2023/05/20 04:37:10;;;;;;;126.72;45.92;;;12.80;99.90;;;;;;5075560;28;20086;-81
2023/05/20 04:39:37;;;;;;;124.75;45.92;;;12.80;99.90;;;;;;5076385;28;20100;-82
2023/05/20 04:42:03;;;;;;;161.65;47.78;;;12.80;99.90;;;;;;5074558;28;20020;-81
2023/05/20 04:44:29;;;;;;;144.55;46.45;;;12.90;99.90;;;;;;5075899;28;20371;-81
2023/05/20 04:46:58;;;;;;;126.05;43.22;;;12.90;99.90;;;;;;5074605;28;20443;-81
2023/05/20 04:49:28;;;;;;;150.05;45.38;;;13.00;99.90;;;;;;5075637;28;20024;-82
2023/05/20 04:51:54;;;;;;;155.63;47.40;;;13.00;99.90;;;;;;5075812;28;20337;-81
2023/05/20 04:54:20;;;;;;;135.65;48.55;;;13.10;99.90;;;;;;5075470;28;20466;-81
2023/05/20 04:56:46;;;;;;;152.02;48.05;;;13.10;99.90;;;;;;5075620;28;20058;-83
2023/05/20 04:59:12;;;;;;;154.45;47.55;;;13.20;99.90;;;;;;5075395;28;20111;-81
2023/05/20 05:01:38;;;;;;;172.60;46.80;;;13.20;99.90;;;;;;5074839;28;20131;-80
2023/05/20 05:04:04;;;;;;;166.73;48.42;;;13.10;99.90;;;;;;5073794;28;20135;-81
2023/05/20 05:06:30;;;;;;;151.75;43.05;;;13.20;99.90;;;;;;5075971;28;20039;-80
2023/05/20 05:08:56;;;;;;;144.48;44.65;;;13.10;99.90;;;;;;5074040;28;20446;-80
2023/05/20 05:11:22;;;;;;;128.80;42.67;;;13.20;99.90;;;;;;5075315;28;20031;-81
2023/05/20 05:13:47;;;;;;;103.25;41.30;;;13.20;99.90;;;;;;5075326;28;20024;-80
2023/05/20 05:16:13;;;;;;;108.22;41.55;;;13.20;99.90;;;;;;5075521;28;20339;-79
2023/05/20 05:18:39;;;;;;;101.30;41.97;;;13.30;99.90;;;;;;5075734;28;20047;-80
2023/05/20 05:21:05;;;;;;;196.93;42.28;;;13.40;99.90;;;;;;5075061;28;20017;-82
2023/05/20 05:23:32;;;;;;;134.13;42.80;;;13.40;99.90;;;;;;5074225;28;20021;-82
2023/05/20 05:25:58;;;;;;;129.38;43.63;;;13.50;99.90;;;;;;5075031;28;20032;-79
2023/05/20 05:28:24;;;;;;;112.50;43.92;;;13.60;99.90;;;;;;5074641;28;20035;-79
2023/05/20 05:30:50;;;;;;;112.22;42.28;;;13.60;99.90;;;;;;5074010;28;20021;-78
2023/05/20 05:33:16;;;;;;;103.65;43.88;;;13.70;99.90;;;;;;5075507;28;20031;-79
2023/05/20 05:35:42;;;;;;;109.68;43.05;;;13.80;99.90;;;;;;5074012;28;20036;-78
2023/05/20 05:38:08;;;;;;;105.35;42.90;;;13.80;99.90;;;;;;5075254;28;20023;-79
2023/05/20 05:40:35;;;;;;;96.50;43.13;;;13.90;99.90;;;;;;5075348;28;20028;-78
2023/05/20 05:43:00;;;;;;;104.43;42.92;;;13.90;99.90;;;;;;5075230;28;20428;-79
2023/05/20 05:45:26;;;;;;;102.25;43.28;;;13.90;99.90;;;;;;5075408;28;20034;-79
2023/05/20 05:47:53;;;;;;;99.85;45.08;;;14.00;99.90;;;;;;5075965;28;20447;-79
2023/05/20 05:50:18;;;;;;;111.35;44.80;;;13.90;99.90;;;;;;5073965;28;20016;-79
2023/05/20 05:52:44;;;;;;;108.50;44.42;;;13.90;99.90;;;;;;5075745;28;20027;-79
2023/05/20 05:55:11;;;;;;;110.95;48.63;;;13.90;99.90;;;;;;5073467;28;20097;-80
2023/05/20 05:57:36;;;;;;;118.88;48.67;;;14.00;99.90;;;;;;5072651;28;20020;-79
2023/05/20 06:00:03;;;;;;;107.88;48.13;;;14.10;99.90;;;;;;5075015;28;20467;-79
2023/05/20 06:02:29;;;;;;;128.88;49.58;;;14.20;99.90;;;;;;5075243;28;20029;-80
2023/05/20 06:04:55;;;;;;;124.30;50.58;;;14.30;99.90;;;;;;5073716;28;20101;-79
2023/05/20 06:07:22;;;;;;;120.40;49.17;;;14.40;99.90;;;;;;5075271;28;20025;-79
2023/05/20 06:09:47;;;;;;;113.55;47.30;;;14.50;99.90;;;;;;5074995;28;20020;-79
2023/05/20 06:12:13;;;;;;;112.72;48.72;;;14.50;99.90;;;;;;5075086;28;20055;-80
2023/05/20 06:14:39;;;;;;;97.70;45.75;;;14.60;99.90;;;;;;5074637;28;20074;-79
2023/05/20 06:17:05;;;;;;;92.00;44.03;;;14.70;99.90;;;;;;5074319;28;20043;-79
2023/05/20 06:19:30;;;;;;;110.43;46.08;;;14.70;99.90;;;;;;5073665;28;20376;-80
2023/05/20 06:21:59;;;;;;;91.05;44.35;;;14.80;99.90;;;;;;5074709;28;20036;-79
2023/05/20 06:24:25;;;;;;;97.07;43.45;;;14.90;99.90;;;;;;5072811;28;20489;-79
2023/05/20 06:26:51;;;;;;;96.88;44.78;;;14.90;99.90;;;;;;5073707;28;20024;-79
2023/05/20 06:29:17;;;;;;;95.55;44.70;;;15.00;99.90;;;;;;5074840;28;20056;-78
2023/05/20 06:31:43;;;;;;;92.10;43.70;;;15.10;99.90;;;;;;5074348;28;20363;-80
2023/05/20 06:34:08;;;;;;;86.72;42.28;;;15.20;99.90;;;;;;5074513;28;20026;-80
2023/05/20 06:36:34;;;;;;;74.35;39.47;;;15.30;99.90;;;;;;5074150;28;20151;-79
2023/05/20 06:39:00;;;;;;;77.32;39.28;;;15.30;99.90;;;;;;5072927;28;20036;-79
2023/05/20 06:41:26;;;;;;;74.43;39.53;;;15.50;99.90;;;;;;5072592;28;20028;-80
2023/05/20 06:43:52;;;;;;;73.32;37.88;;;15.40;99.90;;;;;;5071451;28;20360;-80
2023/05/20 06:46:17;;;;;;;75.18;38.00;;;15.50;99.90;;;;;;5072865;28;20024;-80
2023/05/20 06:48:43;;;;;;;72.13;36.97;;;15.50;99.90;;;;;;5072930;28;20059;-81
2023/05/20 06:51:09;;;;;;;67.90;37.78;;;15.70;99.90;;;;;;5072693;28;20082;-83
2023/05/20 06:53:35;;;;;;;66.18;36.10;;;;;;;;;;5073863;28;20031;-82
2023/05/20 06:56:01;;;;;;;69.05;35.17;;;15.90;99.90;;;;;;5074001;28;20491;-83
2023/05/20 06:58:27;;;;;;;70.55;35.88;;;16.10;99.90;;;;;;5074149;28;20052;-81
2023/05/20 07:00:53;;;;;;;62.38;35.47;;;16.10;99.90;;;;;;5072240;28;20027;-81
2023/05/20 07:03:19;;;;;;;67.28;34.20;;;16.40;99.90;;;;;;5072878;28;20115;-82
2023/05/20 07:05:45;;;;;;;61.35;33.55;;;16.60;99.90;;;;;;5072593;28;20452;-82
2023/05/20 07:08:11;;;;;;;64.70;35.25;;;16.60;99.90;;;;;;5074413;28;20028;-81
2023/05/20 07:10:37;;;;;;;63.40;34.65;;;16.80;99.90;;;;;;5072820;28;20028;-82
2023/05/20 07:13:03;;;;;;;60.28;33.03;;;17.00;99.90;;;;;;5072458;28;20362;-82
2023/05/20 07:15:28;;;;;;;53.55;29.55;;;17.20;99.90;;;;;;5073820;28;20029;-83
2023/05/20 07:17:54;;;;;;;45.67;28.40;;;17.00;99.90;;;;;;5072682;28;20031;-83
2023/05/20 07:20:20;;;;;;;40.30;24.83;;;17.00;99.90;;;;;;5073605;28;20031;-83
2023/05/20 07:22:47;;;;;;;46.60;27.00;;;17.00;99.90;;;;;;5072709;28;20111;-82
2023/05/20 07:25:13;;;;;;;45.45;27.58;;;16.80;99.90;;;;;;5072662;28;20036;-83
2023/05/20 07:27:39;;;;;;;48.58;27.00;;;16.90;99.90;;;;;;5072094;28;20035;-82
2023/05/20 07:30:05;;;;;;;47.78;27.25;;;;;;;;;;5072574;28;20024;-82
2023/05/20 07:32:32;;;;;;;48.20;27.23;;;;;;;;;;5072546;28;20025;-82
2023/05/20 07:34:57;;;;;;;40.65;24.58;;;17.80;99.90;;;;;;5071792;28;20037;-82
2023/05/20 07:37:23;;;;;;;43.13;25.55;;;17.80;99.90;;;;;;5073758;28;20078;-84
2023/05/20 07:39:49;;;;;;;39.85;24.05;;;17.90;99.90;;;;;;5073747;28;20034;-83
2023/05/20 07:42:15;;;;;;;36.13;23.20;;;;;;;;;;5073701;28;20052;-83
2023/05/20 07:44:42;;;;;;;35.58;21.17;;;;;;;;;;5072400;28;20016;-83
2023/05/20 07:47:08;;;;;;;33.42;22.33;;;;;;;;;;5072543;28;20021;-83
2023/05/20 07:49:34;;;;;;;30.58;21.65;;;18.80;99.90;;;;;;5072038;28;20023;-83
2023/05/20 07:52:00;;;;;;;32.38;20.02;;;19.00;99.90;;;;;;5074409;28;20115;-83
2023/05/20 07:54:26;;;;;;;29.05;19.52;;;19.10;99.90;;;;;;5076398;28;20020;-83
2023/05/20 07:56:52;;;;;;;30.85;20.33;;;;;;;;;;5075884;28;20032;-82
2023/05/20 07:59:18;;;;;;;29.58;20.23;;;19.40;99.90;;;;;;5077538;28;20024;-83
2023/05/20 08:01:44;;;;;;;30.63;18.90;;;19.50;99.90;;;;;;5076307;28;20028;-83
2023/05/20 08:04:09;;;;;;;23.10;16.25;;;19.70;99.90;;;;;;5077725;28;20020;-84
2023/05/20 08:06:35;;;;;;;24.10;17.10;;;19.80;99.90;;;;;;5076245;28;20371;-83
2023/05/20 08:09:02;;;;;;;26.02;16.42;;;;;;;;;;5076485;28;20086;-83
2023/05/20 08:11:28;;;;;;;26.50;17.77;;;19.80;99.90;;;;;;5077007;28;20409;-83
2023/05/20 08:13:54;;;;;;;21.17;15.27;;;;;;;;;;5077079;28;20022;-83
2023/05/20 08:16:21;;;;;;;20.70;16.10;;;;;;;;;;5075497;28;20513;-84
2023/05/20 08:18:47;;;;;;;20.73;13.52;;;;;;;;;;5077363;28;20021;-84
2023/05/20 08:21:14;;;;;;;20.88;13.00;;;;;;;;;;5075801;28;20031;-83
2023/05/20 08:23:40;;;;;;;19.77;12.15;;;;;;;;;;5074897;28;20020;-83
2023/05/20 08:26:07;;;;;;;19.02;12.10;;;;;;;;;;5075721;28;20036;-83
2023/05/20 08:28:33;;;;;;;19.38;11.57;;;;;;;;;;5077127;28;20519;-83
2023/05/20 08:31:01;;;;;;;15.77;10.93;;;;;;;;;;5076676;28;20028;-83
2023/05/20 08:33:27;;;;;;;16.83;11.18;;;;;;;;;;5075640;28;20017;-83
2023/05/20 08:35:53;;;;;;;20.15;11.73;;;;;;;;;;5076417;28;20040;-82
2023/05/20 08:38:19;;;;;;;16.25;10.73;;;;;;;;;;5076321;28;20020;-82
2023/05/20 08:40:45;;;;;;;18.50;10.70;;;;;;;;;;5076890;28;20114;-82
2023/05/20 08:43:12;;;;;;;15.85;10.88;;;;;;;;;;5075470;28;20026;-83
2023/05/20 08:45:38;;;;;;;18.63;11.57;;;;;;;;;;5076449;28;20020;-83
2023/05/20 08:48:04;;;;;;;15.73;9.98;;;;;;;;;;5076430;28;20020;-82
2023/05/20 08:50:31;;;;;;;16.00;10.15;;;;;;;;;;5075343;28;20040;-83
2023/05/20 08:52:57;;;;;;;17.40;11.38;;;;;;;;;;5076297;28;20075;-84
2023/05/20 08:55:25;;;;;;;13.15;10.30;;;;;;;;;;5075094;28;20409;-83
2023/05/20 08:57:53;;;;;;;13.05;10.07;;;;;;;;;;5074104;28;20115;-84
2023/05/20 09:00:22;;;;;;;11.82;9.57;;;;;;;;;;5076206;28;20385;-82
2023/05/20 09:02:48;;;;;;;12.95;9.32;;;;;;;;;;5074426;28;20519;-82
2023/05/20 09:05:14;;;;;;;13.10;9.00;;;;;;;;;;5075822;28;20402;-83
2023/05/20 09:07:42;;;;;;;15.43;9.32;;;;;;;;;;5075120;28;20462;-84
2023/05/20 09:10:09;;;;;;;12.73;9.45;;;;;;;;;;5075049;28;20012;-83
2023/05/20 09:12:35;;;;;;;11.70;8.48;;;;;;;;;;5075904;28;20447;-83
2023/05/20 09:15:02;;;;;;;11.15;8.73;;;;;;;;;;5075697;28;20162;-84
2023/05/20 09:17:28;;;;;;;11.82;8.77;;;;;;;;;;5076264;28;20024;-84
2023/05/20 09:19:54;;;;;;;12.20;9.27;;;;;;;;;;5076086;28;20508;-85
2023/05/20 09:22:28;;;;;;;10.70;9.32;;;;;;;;;;5074776;28;20031;-85
2023/05/20 09:24:54;;;;;;;12.77;9.35;;;;;;;;;;5076375;28;20009;-84
2023/05/20 09:27:22;;;;;;;15.50;9.43;;;;;;;;;;5074488;28;20043;-84
2023/05/20 09:29:49;;;;;;;12.80;8.85;;;;;;;;;;5074753;28;20051;-83
2023/05/20 09:32:15;;;;;;;12.32;9.18;;;;;;;;;;5058026;28;20024;-84
2023/05/20 09:34:42;;;;;;;12.35;9.52;;;;;;;;;;5073892;28;20048;-84
2023/05/20 09:37:08;;;;;;;16.05;10.45;;;;;;;;;;5074640;28;20029;-84
2023/05/20 09:39:48;;;;;;;14.25;10.65;;;;;;;;;;5074546;28;20107;-83
2023/05/20 09:42:22;;;;;;;12.93;9.93;;;;;;;;;;5075797;28;20051;-83
2023/05/20 09:44:50;;;;;;;13.52;10.88;;;;;;;;;;5075858;28;20103;-84
2023/05/20 09:47:17;;;;;;;11.35;9.52;;;;;;;;;;5075569;28;20052;-84
2023/05/20 09:49:46;;;;;;;11.70;10.15;;;;;;;;;;5073981;28;20059;-84
2023/05/20 09:52:13;;;;;;;14.07;10.50;;;;;;;;;;5075529;28;20024;-84
2023/05/20 09:54:41;;;;;;;13.38;10.48;;;;;;;;;;5073832;28;20024;-84
2023/05/20 09:57:07;;;;;;;15.50;10.57;;;;;;;;;;5075415;28;20036;-84
2023/05/20 09:59:35;;;;;;;16.48;10.95;;;;;;;;;;5074235;28;20025;-82
2023/05/20 10:02:01;;;;;;;23.38;10.48;;;;;;;;;;5074731;28;20052;-83
2023/05/20 10:04:28;;;;;;;12.90;11.10;;;;;;;;;;5075309;28;20020;-82
2023/05/20 10:07:08;;;;;;;14.25;10.05;;;;;;;;;;5075537;28;20021;-82
2023/05/20 10:09:55;;;;;;;12.50;10.80;;;;;;;;;;5073581;28;20340;-82
2023/05/20 10:12:32;;;;;;;14.55;10.70;;;;;;;;;;5073735;28;20025;-83
2023/05/20 10:15:17;;;;;;;15.40;10.82;;;;;;;;;;5072267;28;20024;-84
2023/05/20 10:18:01;;;;;;;15.82;10.52;;;;;;;;;;5073675;28;20405;-84
2023/05/20 10:20:27;;;;;;;16.10;9.85;;;;;;;;;;5075145;28;20355;-84
2023/05/20 10:22:57;;;;;;;15.85;10.45;;;;;;;;;;5074918;28;20032;-84
2023/05/20 10:25:27;;;;;;;14.50;10.15;;;;;;;;;;5073634;28;20025;-83
2023/05/20 10:28:03;;;;;;;13.73;10.23;;;;;;;;;;5073475;28;20469;-83
2023/05/20 10:30:29;;;;;;;13.13;8.80;;;;;;;;;;5074463;28;20028;-83
2023/05/20 10:32:59;;;;;;;10.80;9.30;;;;;;;;;;5073293;28;20126;-82
2023/05/20 10:35:26;;;;;;;10.15;9.15;;;;;;;;;;5072896;28;20068;-83
2023/05/20 10:37:54;;;;;;;11.38;8.95;;;;;;;;;;5074294;28;20336;-84
2023/05/20 10:40:21;;;;;;;11.70;9.20;;;;;;;;;;5072702;28;20032;-84
2023/05/20 10:42:48;;;;;;;10.20;8.98;;;;;;;;;;5073005;28;20398;-83
2023/05/20 10:45:27;;;;;;;9.27;8.38;;;;;;;;;;5072857;28;20024;-84
2023/05/20 10:47:57;;;;;;;9.32;8.20;;;;;;;;;;5073071;28;20024;-84
2023/05/20 10:50:27;;;;;;;10.38;8.43;;;;;;;;;;5073566;28;20481;-84
2023/05/20 10:52:54;;;;;;;10.80;7.97;;;;;;;;;;5051182;28;20039;-83
2023/05/20 10:55:22;;;;;;;10.10;9.00;;;;;;;;;;5073903;28;20025;-84
2023/05/20 10:57:48;;;;;;;12.15;9.13;;;;;;;;;;5072651;28;20347;-83
2023/05/20 11:00:15;;;;;;;11.00;8.30;;;;;;;;;;5074247;28;20103;-83
2023/05/20 11:02:42;;;;;;;11.50;9.18;;;;;;;;;;5072924;28;20025;-83
2023/05/20 11:05:11;;;;;;;12.20;9.90;;;;;;;;;;5073806;28;20035;-82
2023/05/20 11:07:37;;;;;;;11.45;9.52;;;;;;;;;;5074424;28;20471;-81
2023/05/20 11:10:07;;;;;;;11.55;9.00;;;;;;;;;;5073842;28;20020;-82
2023/05/20 11:12:33;;;;;;;11.68;9.90;;;;;;;;;;5073722;28;20020;-81
2023/05/20 11:15:01;;;;;;;16.10;8.85;;;;;;;;;;5073782;28;20070;-80
2023/05/20 11:17:28;;;;;;;10.05;8.80;;;;;;;;;;5074002;28;20021;-80
2023/05/20 11:19:54;;;;;;;10.20;9.10;;;;;;;;;;5072395;28;20020;-81
2023/05/20 11:22:20;;;;;;;14.55;9.90;;;;;;;;;;5073931;28;20021;-81
2023/05/20 11:24:46;;;;;;;12.80;9.88;;;;;;;;;;5072331;28;20032;-80
2023/05/20 11:27:12;;;;;;;13.23;9.70;;;;;;;;;;5073331;28;20104;-79
2023/05/20 11:29:39;;;;;;;11.32;9.30;;;;;;;;;;5072540;28;20122;-80
2023/05/20 11:32:07;;;;;;;10.23;8.75;;;;;;;;;;5073307;28;20074;-82
2023/05/20 11:34:37;;;;;;;10.80;8.25;;;;;;;;;;5073729;28;20049;-80
2023/05/20 11:37:08;;;;;;;12.27;8.35;;;;;;;;;;5073657;28;20127;-81
2023/05/20 11:39:34;;;;;;;11.00;8.40;;;;;;;;;;5073183;28;20029;-80
2023/05/20 11:42:00;;;;;;;14.25;9.10;;;;;;;;;;5072672;28;20028;-84
2023/05/20 11:44:26;;;;;;;12.73;8.68;;;;;;;;;;5073903;28;20032;-81
2023/05/20 11:46:58;;;;;;;11.02;8.90;;;;;;;;;;5072224;28;20028;-81
2023/05/20 11:49:25;;;;;;;10.55;9.43;;;;;;;;;;5072390;28;20024;-81
2023/05/20 11:51:51;;;;;;;9.68;8.55;;;;;;;;;;5073876;28;20016;-81
2023/05/20 11:54:17;;;;;;;9.70;8.80;;;;;;;;;;5073069;28;20024;-83
2023/05/20 11:56:44;;;;;;;12.75;9.25;;;;;;;;;;5071412;28;20024;-85
2023/05/20 11:59:10;;;;;;;16.48;9.32;;;;;;;;;;5072408;28;20019;-81
2023/05/20 12:01:39;;;;;;;14.10;8.50;;;;;;;;;;5071969;28;20108;-84
2023/05/20 12:04:05;;;;;;;10.05;8.48;;;;;;;;;;5072124;28;20020;-82
2023/05/20 12:06:32;;;;;;;9.45;8.52;;;;;;;;;;5071668;28;20044;-82
2023/05/20 12:09:05;;;;;;;10.63;8.52;;;;;;;;;;5071404;28;20497;-83
2023/05/20 12:11:31;;;;;;;9.02;8.23;;;;;;;;;;5073374;28;20023;-82
2023/05/20 12:13:58;;;;;;;10.18;8.38;;;;;;;;;;5073120;28;20096;-83
2023/05/20 12:16:24;;;;;;;11.57;8.27;;;;;;;;;;5071969;28;20025;-83
2023/05/20 12:21:01;;;;;;;13.18;9.23;;;;;;;;;;5110856;27;20377;-82
2023/05/20 12:23:29;;;;;;;11.68;9.55;;;;;;;;;;5110933;28;20020;-82
2023/05/20 12:25:55;;;;;;;11.55;9.25;;;;;;;;;;5109274;28;20065;-83
2023/05/20 12:28:22;;;;;;;12.27;9.23;;;;;;;;;;5110302;28;20026;-84
2023/05/20 12:30:48;;;;;;;11.88;9.18;;;;;;;;;;5110391;28;20118;-83
2023/05/20 12:33:14;;;;;;;15.05;10.45;;;;;;;;;;5111488;28;20055;-85
2023/05/20 12:35:43;;;;;;;12.18;9.43;;;;;;;;;;5109851;28;20015;-82
2023/05/20 12:38:09;;;;;;;12.30;8.75;;;;;;;;;;5111766;28;20016;-83
2023/05/20 12:40:36;;;;;;;11.82;9.73;;;;;;;;;;5111054;28;20111;-83
2023/05/20 12:43:03;;;;;;;15.30;9.43;;;;;;;;;;5111157;28;20047;-82
2023/05/20 12:45:29;;;;;;;11.43;9.15;;;;;;;;;;5109532;28;20019;-86
2023/05/20 12:47:56;;;;;;;10.52;9.43;;;;;;;;;;5110321;28;20020;-84
2023/05/20 12:50:24;;;;;;;12.70;9.90;;;;;;;;;;5110566;28;20023;-84
2023/05/20 12:52:50;;;;;;;11.05;8.85;;;;;;;;;;5111089;28;20030;-85
2023/05/20 12:55:16;;;;;;;15.63;10.10;;;;;;;;;;5110825;28;20019;-85
2023/05/20 12:57:43;;;;;;;11.32;9.43;;;;;;;;;;5108899;28;20016;-84
2023/05/20 13:00:10;;;;;;;11.27;9.57;;;;;;;;;;5108878;28;20020;-83
2023/05/20 13:02:37;;;;;;;9.82;8.93;;;;;;;;;;5110004;28;20020;-84
2023/05/20 13:05:04;;;;;;;9.90;8.63;;;;;;;;;;5110114;28;20039;-83
2023/05/20 13:07:30;;;;;;;10.63;9.52;;;;;;;;;;5109595;28;20016;-83